Página principal
METAR-TAF:

METAR-TAF

Aeroportos :

Atenas, Grécia

Aeroporto Internacional de Atenas

latitude: 37-56N, longitude: 023-56E, altura: 94 m

Observação actual do tempo

O boletim foi feito há 18 minutos, às 23:20 UTC
Vento calmo
Temperatura 11°C
Humidade 82%
Pressão 1018 hPa
Visibilidade 10 km ou mais
sem nuvens abaixo de 1500 metros e sem cumulonimbus

METAR: LGAV 192320Z 00000KT CAVOK 11/08 Q1018 NOSIG

Hora: 02:38 (23:38 UTC)

Previsão

O boletim foi feito há 6 horas e 38 minutos, às 17:00 UTC
Previsão válida de 19 às 18 UTC a 20 às 18 UTC
Vento 3 kt com direcção variável
Visibilidade 10 km ou mais
Poucas nuvensa uma altura de 2500 ft
Tornando-se
de 20 às 08 UTC a 20 às 10 UTC
Vento 8 kt de es-nordeste

TAF: LGAV 191700Z 1918/2018 VRB03KT 9999 FEW025 BECMG 2008/2010 07008KT

Observações e previsões do tempo de mais de 4000 aeroportos (mensagens METAR e TAF).

As estações disponíveis são os pontos amarelos e vermelhos sobre o mapa.

Mova o rato sobre o mapa para ver o nome da estação.

Depois clique no ponto para visualizar as observações e previsões meteorológicas.

Para alterar o mapa : clique nos botões verdes com uma cruz preta para aumentar o zoom; no botão verde com uma pitada de zoom; ou nas setas verdes para mapas adjacentes.


METAR-TAF: